Etusivu
METAR-TAF:

METAR-TAF

Lentoasemat :

Tahoua, Niger

Leveyspiiri: 14-54N, Pituuspiiri: 005-15E, korkeus merenpinnasta: 386 m

Tämänhetkinen sää

Tämä raportti tehtiin 46 minuuttia sitten, kello 16.00 UTC
Tuuli 6 kn lännestä/lounaasta
Lämpötila 31°C
Kosteus 49%
Ilmanpaine 1010 hPa
Näkyvyys 10 km tai enemmän
ei pilviä alle 1500 m:ssä eikä cumulonimbus-pilviä

METAR: DRRT 201600Z 24006KT CAVOK 31/19 Q1010

Aika: 17:46 (16:46 UTC)


TAF: puuttuu

Säähavainnot ja -ennusteet yli 4000 lentoasemalta (METAR- ja TAF-raportit).

Käytössä olevat sääasemat on merkitty karttaan keltaisilla ja punaisilla pisteillä.

Aseta hiiri pisteen päälle nähdäksesi sääaseman nimen.

Klikkaa sitten nähdäksesi säähavainnot ja -ennusteet.

Kartan vaihtaminen: klikkaa mustalla rastilla varustettuja vihreitä pisteitä, niin voit zoomata sisään; viivalla varustettua vihreää pistettä, niin voit zoomata ulos tai vihreitä nuolia, niin pääset viereisille kartoille.


METAR-TAF: